Marshallville, Kentucky
Current Conditions -  °F | °C
As of 12:55 PM on Friday 21 Nov 2014 (Local Time) from KSJS Reporting Station
Clear Clear  
Wind Chill: 31°   Ceiling: Unl
Heat Index: 35°   Visibility: 10mi
Dew Point: 13°   Wind: 5mph
Humidity: 41%   Direction: 70°ENE
Pressure: 30.47"   Gusts: NA
Location:  37.76°N, 83.05°W
Report Text: KSJS 211755Z AUTO 07004KT 10SM CLR 02/M10 A3047 RMK AO2 T00161103 10024 21051
Loading
Personal Weather Stations






























Interactive Weather Map New forecast layout! Learn more

10-Day Weather Forecast

Advertisements
Track Severe Weather on mobile